Time;durP1;ratioP1;P1;durP2;ratioP2;P2;SDS_P1;SDS_P2;PMS_P1;PMS_P2;Temp;Humidity;BMP_temperature;BMP_pressure;BME280_temperature;BME280_humidity;BME280_pressure;Samples;Min_cycle;Max_cycle;Signal;HPM_P1;HPM_P2
2021/09/07 00:02:25;;;;;;;6.85;3.90;;;;;;;23.85;54.52;101803.22;1752807;80;21500;-45
2021/09/07 00:04:52;;;;;;;5.47;3.80;;;;;;;23.84;54.52;101802.98;1755766;81;21086;-46
2021/09/07 00:07:19;;;;;;;5.40;3.62;;;;;;;23.85;54.49;101807.98;1740410;78;20905;-48
2021/09/07 00:09:45;;;;;;;5.90;3.90;;;;;;;23.84;54.50;101804.94;1761440;80;21102;-47
2021/09/07 00:12:11;;;;;;;5.62;3.67;;;;;;;23.84;54.49;101809.94;1766707;79;21228;-47
2021/09/07 00:14:37;;;;;;;4.53;3.27;;;;;;;23.84;54.49;101811.89;1769602;80;21540;-47
2021/09/07 00:17:04;;;;;;;5.95;3.50;;;;;;;23.84;54.48;101811.89;1773082;80;21023;-47
2021/09/07 00:19:30;;;;;;;5.72;3.77;;;;;;;23.84;54.48;101809.11;1769760;78;21204;-48
2021/09/07 00:21:56;;;;;;;5.67;3.52;;;;;;;23.83;54.47;101810.23;1771970;79;21119;-46
2021/09/07 00:24:22;;;;;;;4.10;2.95;;;;;;;23.82;54.46;101814.97;1763541;79;21956;-46
2021/09/07 00:26:48;;;;;;;7.05;3.65;;;;;;;23.82;54.43;101808.02;1767202;79;20881;-46
2021/09/07 00:29:14;;;;;;;5.90;3.15;;;;;;;23.82;54.42;101810.80;1762255;81;21006;-48
2021/09/07 00:31:40;;;;;;;6.03;3.37;;;;;;;23.83;54.39;101817.19;1753023;79;20974;-45
2021/09/07 00:34:07;;;;;;;5.30;3.27;;;;;;;23.81;54.37;101813.32;1761756;79;21065;-47
2021/09/07 00:36:33;;;;;;;5.47;3.22;;;;;;;23.81;54.35;101811.93;1759777;79;21605;-47
2021/09/07 00:38:59;;;;;;;7.87;4.15;;;;;;;23.82;54.33;101814.14;1764423;79;21041;-45
2021/09/07 00:41:25;;;;;;;5.72;3.42;;;;;;;23.81;54.31;101812.50;1766752;79;21123;-46
2021/09/07 00:43:52;;;;;;;6.28;3.50;;;;;;;23.79;54.29;101819.78;1768447;80;21566;-46
2021/09/07 00:46:19;;;;;;;7.33;3.25;;;;;;;23.79;54.26;101821.73;1766381;80;21199;-45
2021/09/07 00:48:45;;;;;;;6.80;3.72;;;;;;;23.79;54.25;101821.73;1761765;81;21272;-47
2021/09/07 00:51:11;;;;;;;4.12;3.40;;;;;;;23.78;54.24;101825.08;1765109;79;20936;-45
2021/09/07 00:53:38;;;;;;;5.47;3.22;;;;;;;23.76;54.23;101820.42;1763703;79;21058;-45
2021/09/07 00:56:05;;;;;;;5.87;3.40;;;;;;;23.75;54.24;101829.06;1765894;79;21018;-45
2021/09/07 00:58:31;;;;;;;5.53;3.30;;;;;;;23.75;54.21;101827.67;1764410;80;21027;-47
2021/09/07 01:00:58;;;;;;;5.45;3.60;;;;;;;23.75;54.21;101827.67;1765854;79;21367;-46
2021/09/07 01:03:24;;;;;;;6.62;3.35;;;;;;;23.73;54.21;101826.58;1739480;80;20952;-46
2021/09/07 01:05:50;;;;;;;5.58;3.22;;;;;;;23.71;54.21;101831.64;1768617;79;20968;-50
2021/09/07 01:08:16;;;;;;;4.83;3.45;;;;;;;23.71;54.18;101831.64;1769880;80;21565;-47
2021/09/07 01:10:42;;;;;;;5.35;3.17;;;;;;;23.71;54.19;101834.98;1770844;79;21068;-47
2021/09/07 01:13:09;;;;;;;5.15;3.50;;;;;;;23.70;54.18;101836.12;1771128;80;21100;-47
2021/09/07 01:15:35;;;;;;;6.87;3.65;;;;;;;23.70;54.19;101834.73;1770751;80;21461;-48
2021/09/07 01:18:02;;;;;;;4.92;3.47;;;;;;;23.68;54.18;101837.25;1770660;79;21656;-45
2021/09/07 01:20:28;;;;;;;5.72;3.45;;;;;;;23.68;54.17;101845.35;1766232;80;20999;-46
2021/09/07 01:22:54;;;;;;;4.45;3.60;;;;;;;23.66;54.16;101840.92;1769483;80;21043;-46
2021/09/07 01:25:20;;;;;;;5.35;3.25;;;;;;;23.66;54.17;101835.37;1769720;80;21536;-46
2021/09/07 01:27:47;;;;;;;5.35;3.10;;;;;;;23.65;54.15;101840.66;1770414;79;20936;-47
2021/09/07 01:30:14;;;;;;;7.17;3.65;;;;;;;23.64;54.15;101837.63;1769735;80;21049;-45
2021/09/07 01:32:41;;;;;;;7.72;3.22;;;;;;;23.64;54.14;101839.57;1769970;79;20993;-46
2021/09/07 01:35:08;;;;;;;5.95;3.15;;;;;;;23.63;54.14;101840.17;1770997;80;21105;-46
2021/09/07 01:37:39;;;;;;;4.75;2.98;;;;;;;23.62;54.13;101839.91;1771394;80;21195;-46
2021/09/07 01:40:07;;;;;;;9.48;3.40;;;;;;;23.61;54.13;101836.04;1768697;79;21039;-45
2021/09/07 01:42:34;;;;;;;4.30;3.20;;;;;;;23.60;54.10;101832.44;1770704;80;21095;-46
2021/09/07 01:45:00;;;;;;;5.42;3.20;;;;;;;23.60;54.08;101835.78;1768313;79;21012;-46
2021/09/07 01:47:26;;;;;;;3.75;2.95;;;;;;;23.59;54.05;101838.33;1746187;80;21048;-46
2021/09/07 01:49:54;;;;;;;5.03;3.30;;;;;;;23.57;54.06;101840.02;1767055;79;21946;-48
2021/09/07 01:52:20;;;;;;;4.95;2.98;;;;;;;23.56;54.04;101835.59;1769841;79;21068;-46
2021/09/07 01:54:47;;;;;;;5.08;2.87;;;;;;;23.56;54.05;101834.77;1765742;79;21019;-45
2021/09/07 01:57:13;;;;;;;4.78;3.05;;;;;;;23.57;54.03;101832.25;1768000;78;21578;-46
2021/09/07 01:59:39;;;;;;;4.62;3.20;;;;;;;23.56;54.02;101834.20;1776136;79;20910;-50
2021/09/07 02:02:06;;;;;;;5.78;3.05;;;;;;;23.53;54.01;101825.11;1772092;79;21071;-46
2021/09/07 02:04:32;;;;;;;4.35;2.92;;;;;;;23.54;54.00;101835.09;1772846;79;21048;-46
2021/09/07 02:06:58;;;;;;;6.15;2.83;;;;;;;23.53;54.00;101838.17;1771274;79;21503;-45
2021/09/07 02:09:24;;;;;;;4.58;3.05;;;;;;;23.52;53.99;101831.80;1770753;77;21705;-45
2021/09/07 02:11:50;;;;;;;4.65;3.08;;;;;;;23.52;54.01;101827.63;1775261;79;21057;-47
2021/09/07 02:14:16;;;;;;;4.60;2.90;;;;;;;23.51;54.01;101832.92;1773349;80;21451;-46
2021/09/07 02:16:43;;;;;;;4.08;3.10;;;;;;;23.51;54.01;101833.48;1768258;79;21576;-46
2021/09/07 02:19:09;;;;;;;5.75;3.15;;;;;;;23.50;54.01;101835.47;1771147;79;21003;-45
2021/09/07 02:21:35;;;;;;;7.08;3.12;;;;;;;23.48;54.00;101832.73;1774325;79;21063;-46
2021/09/07 02:24:01;;;;;;;3.75;2.55;;;;;;;23.48;53.99;101832.73;1781719;78;20883;-48
2021/09/07 02:26:27;;;;;;;4.92;3.00;;;;;;;23.47;54.00;101831.91;1766490;80;21265;-49
2021/09/07 02:28:53;;;;;;;4.75;3.22;;;;;;;23.47;53.98;101833.86;1767695;79;21105;-48
2021/09/07 02:31:19;;;;;;;4.53;3.00;;;;;;;23.45;53.98;101831.41;1766913;79;21417;-46
2021/09/07 02:33:46;;;;;;;6.85;3.10;;;;;;;23.45;53.99;101835.58;1766634;79;21693;-45
2021/09/07 02:36:12;;;;;;;5.03;3.10;;;;;;;23.45;53.98;101838.92;1765065;79;20905;-47
2021/09/07 02:38:38;;;;;;;5.42;3.00;;;;;;;23.43;53.96;101833.66;1763555;79;21425;-46
2021/09/07 02:41:04;;;;;;;6.30;3.35;;;;;;;23.44;53.95;101834.49;1767507;79;20905;-49
2021/09/07 02:43:30;;;;;;;5.33;3.20;;;;;;;23.43;53.95;101841.14;1763866;79;20997;-46
2021/09/07 02:45:56;;;;;;;4.30;3.20;;;;;;;23.42;53.94;101837.57;1763226;80;20986;-47
2021/09/07 02:48:23;;;;;;;4.67;3.00;;;;;;;23.41;53.96;101838.70;1764639;80;21050;-47
2021/09/07 02:50:49;;;;;;;4.92;2.83;;;;;;;23.40;53.94;101837.05;1767254;79;21425;-46
2021/09/07 02:53:15;;;;;;;5.12;3.00;;;;;;;23.39;53.92;101838.17;1766816;79;21516;-45
2021/09/07 02:55:41;;;;;;;4.67;3.35;;;;;;;23.39;53.91;101840.95;1768858;79;21000;-46
2021/09/07 02:58:09;;;;;;;6.75;3.25;;;;;;;23.38;53.90;101833.74;1766848;80;21565;-46
2021/09/07 03:00:36;;;;;;;5.20;3.02;;;;;;;23.38;53.89;101842.67;1764474;79;21044;-46
2021/09/07 03:03:02;;;;;;;5.33;3.00;;;;;;;23.37;53.90;101841.84;1767444;80;21256;-46
2021/09/07 03:05:28;;;;;;;6.40;2.90;;;;;;;23.36;53.87;101844.92;1767367;79;20975;-46
2021/09/07 03:07:54;;;;;;;4.08;2.90;;;;;;;23.36;53.87;101843.53;1763394;79;21692;-47
2021/09/07 03:10:20;;;;;;;6.97;3.02;;;;;;;23.35;53.85;101844.09;1767709;79;20950;-47
2021/09/07 03:12:47;;;;;;;4.83;2.75;;;;;;;23.35;53.84;101848.26;1767234;79;21071;-46
2021/09/07 03:15:13;;;;;;;3.83;2.80;;;;;;;23.34;53.83;101843.04;1768867;79;21114;-46
2021/09/07 03:17:39;;;;;;;4.35;3.00;;;;;;;23.34;53.83;101844.42;1771981;79;21091;-48
2021/09/07 03:20:07;;;;;;;3.62;2.75;;;;;;;23.33;53.81;101845.55;1769976;79;21016;-46
2021/09/07 03:22:33;;;;;;;3.37;2.52;;;;;;;23.32;53.80;101844.73;1772606;79;21048;-45
2021/09/07 03:24:59;;;;;;;3.67;2.75;;;;;;;23.32;53.79;101848.06;1769421;79;21007;-47
2021/09/07 03:27:26;;;;;;;3.90;2.90;;;;;;;23.31;53.78;101844.46;1772602;79;21113;-46
2021/09/07 03:29:52;;;;;;;5.70;2.95;;;;;;;23.31;53.77;101840.30;1770227;79;21071;-47
2021/09/07 03:32:18;;;;;;;4.55;2.60;;;;;;;23.31;53.74;101843.64;1767857;79;21488;-47
2021/09/07 03:34:44;;;;;;;4.90;2.80;;;;;;;23.30;53.75;101848.96;1766359;79;21124;-47
2021/09/07 03:37:10;;;;;;;3.85;2.98;;;;;;;23.28;53.73;101846.48;1768343;79;21048;-47
2021/09/07 03:39:36;;;;;;;5.58;2.62;;;;;;;23.28;53.72;101847.88;1767641;79;21118;-46
2021/09/07 03:42:03;;;;;;;3.72;2.77;;;;;;;23.28;53.71;101848.44;1762054;79;21406;-46
2021/09/07 03:44:30;;;;;;;4.50;3.15;;;;;;;23.27;53.70;101849.56;1771123;79;21550;-48
2021/09/07 03:46:56;;;;;;;4.42;3.00;;;;;;;23.26;53.67;101847.34;1769353;79;21609;-46
2021/09/07 03:49:22;;;;;;;4.65;2.50;;;;;;;23.26;53.66;101852.08;1770857;79;21094;-46
2021/09/07 03:51:48;;;;;;;4.42;3.02;;;;;;;23.24;53.67;101856.56;1765355;79;21165;-45
2021/09/07 03:54:14;;;;;;;6.53;3.35;;;;;;;23.25;53.66;101860.17;1768805;79;21098;-46
2021/09/07 03:56:40;;;;;;;39.50;12.15;;;;;;;23.24;53.65;101863.52;1774241;79;20966;-45
2021/09/07 03:59:07;;;;;;;28.70;8.40;;;;;;;23.24;53.65;101856.56;1773453;79;21370;-44
2021/09/07 04:01:33;;;;;;;132.47;31.07;;;;;;;23.23;53.66;101861.30;1773361;79;20914;-44
2021/09/07 04:03:59;;;;;;;41.65;11.08;;;;;;;23.23;53.67;101859.91;1772537;79;21187;-45
2021/09/07 04:06:25;;;;;;;14.80;4.87;;;;;;;23.24;53.68;101863.52;1772514;79;21341;-45
2021/09/07 04:08:51;;;;;;;75.25;18.45;;;;;;;23.23;53.68;101859.91;1771485;80;20987;-43
2021/09/07 04:11:17;;;;;;;37.58;8.95;;;;;;;23.23;53.68;101859.08;1773635;79;21660;-43
2021/09/07 04:13:43;;;;;;;14.10;4.97;;;;;;;23.23;53.69;101859.91;1768856;80;21053;-43
2021/09/07 04:16:09;;;;;;;9.83;3.67;;;;;;;23.25;53.71;101862.95;1769036;81;21348;-44
2021/09/07 04:18:35;;;;;;;103.38;21.45;;;;;;;23.24;53.68;101870.45;1770248;79;20992;-44
2021/09/07 04:21:01;;;;;;;24.05;7.92;;;;;;;23.25;53.69;101865.72;1769462;79;20911;-43
2021/09/07 04:23:30;;;;;;;28.30;7.53;;;;;;;23.23;53.68;101861.86;1766625;79;20995;-45
2021/09/07 04:25:58;;;;;;;359.10;121.17;;;;;;;23.25;53.71;101864.33;1767259;80;20958;-46
2021/09/07 04:28:24;;;;;;;30.25;8.83;;;;;;;23.24;53.72;101857.95;1767293;79;22038;-44
2021/09/07 04:30:50;;;;;;;33.18;12.10;;;;;;;23.24;53.71;101862.12;1769202;80;20905;-46
2021/09/07 04:33:16;;;;;;;66.85;21.70;;;;;;;23.24;53.71;101863.52;1765292;79;21001;-48
2021/09/07 04:35:42;;;;;;;158.70;45.35;;;;;;;23.26;53.70;101866.78;1767733;79;20963;-47
2021/09/07 04:38:08;;;;;;;241.57;74.95;;;;;;;23.24;53.68;101864.90;1766510;79;21016;-46
2021/09/07 04:40:34;;;;;;;134.87;33.40;;;;;;;23.25;53.71;101869.89;1761651;79;20990;-46
2021/09/07 04:43:00;;;;;;;122.45;34.78;;;;;;;23.25;53.68;101869.33;1762635;79;21587;-46
2021/09/07 04:45:26;;;;;;;33.45;10.72;;;;;;;23.25;53.68;101868.50;1764901;79;21013;-48
2021/09/07 04:47:53;;;;;;;8.83;4.50;;;;;;;23.27;53.67;101877.33;1764901;79;21475;-49
2021/09/07 04:50:19;;;;;;;149.90;44.77;;;;;;;23.24;53.66;101873.23;1764314;79;21089;-48
2021/09/07 04:52:45;;;;;;;290.18;84.95;;;;;;;23.25;53.67;101871.27;1759590;79;21035;-46
2021/09/07 04:55:11;;;;;;;120.22;33.48;;;;;;;23.26;53.66;101875.11;1764965;79;20865;-46
2021/09/07 04:57:37;;;;;;;34.50;11.03;;;;;;;23.27;53.68;101878.72;1769549;79;20966;-46
2021/09/07 05:00:05;;;;;;;8.48;4.75;;;;;;;23.25;53.66;101880.43;1767842;79;20978;-46
2021/09/07 05:02:35;;;;;;;6.80;3.85;;;;;;;23.24;53.66;101881.55;1768223;79;21050;-46
2021/09/07 05:05:06;;;;;;;5.10;3.30;;;;;;;23.25;53.64;101879.61;1767387;79;21135;-48
2021/09/07 05:07:32;;;;;;;7.25;3.58;;;;;;;23.24;53.60;101885.72;1769034;79;21033;-48
2021/09/07 05:09:58;;;;;;;6.37;3.62;;;;;;;23.23;53.61;101881.30;1768023;79;21600;-46
2021/09/07 05:12:26;;;;;;;6.00;3.90;;;;;;;23.23;53.66;101889.62;1764657;79;21035;-45
2021/09/07 05:14:53;;;;;;;6.70;3.83;;;;;;;23.23;53.73;101886.28;1764697;79;21177;-46
2021/09/07 05:17:20;;;;;;;9.33;5.25;;;;;;;23.24;53.83;101891.27;1760458;81;21130;-45
2021/09/07 05:19:46;;;;;;;15.00;8.33;;;;;;;23.25;53.98;101890.15;1763005;81;21046;-49
2021/09/07 05:22:12;;;;;;;24.77;12.23;;;;;;;23.25;54.09;101890.15;1761244;81;21017;-47
2021/09/07 05:24:38;;;;;;;35.68;20.65;;;;;;;23.25;54.23;101899.87;1764256;79;21074;-45
2021/09/07 05:27:04;;;;;;;37.67;20.52;;;;;;;23.26;54.34;101901.48;1760533;81;21534;-46
2021/09/07 05:29:31;;;;;;;41.15;22.00;;;;;;;23.27;54.46;101898.15;1756193;79;21141;-49
2021/09/07 05:31:57;;;;;;;185.90;78.50;;;;;;;23.27;54.55;101899.54;1761461;79;20955;-46
2021/09/07 05:34:23;;;;;;;44.95;23.50;;;;;;;23.27;54.65;101910.08;1760628;79;21079;-46
2021/09/07 05:36:49;;;;;;;42.80;21.27;;;;;;;23.27;54.72;101907.30;1764820;79;20922;-54
2021/09/07 05:39:16;;;;;;;29.60;19.87;;;;;;;23.26;54.77;101911.20;1761379;79;21010;-46
2021/09/07 05:41:42;;;;;;;26.97;17.42;;;;;;;23.28;54.83;101909.52;1761267;79;21147;-46
2021/09/07 05:44:08;;;;;;;28.23;18.23;;;;;;;23.27;54.89;101907.30;1760125;79;20983;-47
2021/09/07 05:46:35;;;;;;;31.00;17.45;;;;;;;23.28;54.94;101913.69;1762794;79;21013;-46
2021/09/07 05:49:01;;;;;;;189.80;61.65;;;;;;;23.27;54.99;101912.86;1763297;81;21070;-46
2021/09/07 05:51:27;;;;;;;412.50;148.62;;;;;;;23.28;55.07;101913.12;1754923;79;21485;-46
2021/09/07 05:53:53;;;;;;;455.30;160.65;;;;;;;23.28;55.13;101913.69;1750521;80;21722;-47
2021/09/07 05:56:20;;;;;;;374.85;118.08;;;;;;;23.29;55.19;101915.34;1771311;79;21009;-46
2021/09/07 05:58:46;;;;;;;325.13;105.35;;;;;;;23.28;55.25;101909.52;1767521;79;21001;-46
2021/09/07 06:01:13;;;;;;;204.80;66.05;;;;;;;23.29;55.27;101918.94;1771209;78;20929;-46
2021/09/07 06:03:39;;;;;;;141.18;46.55;;;;;;;23.28;55.33;101914.52;1769395;79;21090;-47
2021/09/07 06:06:05;;;;;;;84.30;33.30;;;;;;;23.30;55.38;101916.99;1767565;79;21238;-46
2021/09/07 06:08:31;;;;;;;44.95;21.57;;;;;;;23.29;55.42;101914.77;1771304;79;21054;-47
2021/09/07 06:10:57;;;;;;;36.05;17.85;;;;;;;23.29;55.45;101920.89;1767486;79;21566;-46
2021/09/07 06:13:24;;;;;;;28.07;14.28;;;;;;;23.28;55.49;101917.28;1767464;79;21697;-48
2021/09/07 06:15:50;;;;;;;22.45;13.53;;;;;;;23.28;55.53;101925.63;1770084;79;21482;-46
2021/09/07 06:18:16;;;;;;;27.00;13.50;;;;;;;23.29;55.55;101919.50;1773740;79;21113;-46
2021/09/07 06:20:43;;;;;;;21.65;12.25;;;;;;;23.28;55.56;101924.80;1772407;79;21552;-45
2021/09/07 06:23:10;;;;;;;19.82;11.60;;;;;;;23.27;55.58;101925.35;1775259;79;21119;-46
2021/09/07 06:25:36;;;;;;;19.73;11.57;;;;;;;23.27;55.57;101920.36;1770044;79;21035;-46
2021/09/07 06:28:05;;;;;;;16.62;10.98;;;;;;;23.27;55.61;101926.74;1769077;79;21047;-45
2021/09/07 06:30:31;;;;;;;19.15;11.55;;;;;;;23.27;55.61;101925.35;1772603;79;21037;-46
2021/09/07 06:32:57;;;;;;;20.23;11.10;;;;;;;23.28;55.62;101933.12;1772288;79;21611;-46
2021/09/07 06:35:24;;;;;;;16.90;10.03;;;;;;;23.27;55.61;101932.30;1774345;79;20900;-49
2021/09/07 06:37:50;;;;;;;17.65;11.22;;;;;;;23.27;55.60;101936.46;1769896;79;21137;-46
2021/09/07 06:40:16;;;;;;;16.02;10.15;;;;;;;23.26;55.62;101934.81;1770172;79;21063;-46
2021/09/07 06:42:42;;;;;;;15.30;10.03;;;;;;;23.26;55.62;101936.76;1748779;80;21188;-46
2021/09/07 06:45:10;;;;;;;15.10;10.35;;;;;;;23.26;55.61;101939.53;1758421;80;21450;-46
2021/09/07 06:47:36;;;;;;;14.87;9.35;;;;;;;23.25;55.62;101934.58;1779678;78;21046;-45
2021/09/07 06:50:05;;;;;;;23.47;9.85;;;;;;;23.25;55.60;101939.30;1783020;78;20977;-47
2021/09/07 06:52:31;;;;;;;18.40;9.13;;;;;;;23.25;55.60;101944.86;1775422;78;21471;-45
2021/09/07 06:54:58;;;;;;;14.13;8.70;;;;;;;23.26;55.59;101940.92;1766947;78;22144;-46
2021/09/07 06:57:26;;;;;;;14.95;8.48;;;;;;;23.26;55.59;101943.70;1783073;78;21013;-47
2021/09/07 06:59:54;;;;;;;12.88;8.50;;;;;;;23.24;55.59;101945.42;1778235;78;21021;-47
2021/09/07 07:02:21;;;;;;;11.03;8.30;;;;;;;23.25;55.57;101944.86;1777679;78;21040;-46
2021/09/07 07:04:47;;;;;;;12.53;7.92;;;;;;;23.25;55.58;101950.41;1778814;78;21063;-46
2021/09/07 07:07:13;;;;;;;18.05;8.43;;;;;;;23.24;55.55;101950.97;1771493;78;21139;-46
2021/09/07 07:09:40;;;;;;;11.40;7.83;;;;;;;23.22;55.55;101954.05;1779679;79;21357;-46
2021/09/07 07:12:07;;;;;;;12.63;7.65;;;;;;;23.23;55.54;101954.87;1776156;80;21011;-46
2021/09/07 07:14:33;;;;;;;12.23;7.12;;;;;;;23.23;55.54;101950.14;1770834;78;21091;-46
2021/09/07 07:17:00;;;;;;;10.88;6.80;;;;;;;23.23;55.53;101954.87;1775666;80;21131;-47
2021/09/07 07:19:26;;;;;;;14.30;7.28;;;;;;;23.23;55.51;101955.70;1774000;78;21015;-45
2021/09/07 07:21:52;;;;;;;10.45;6.58;;;;;;;23.23;55.53;101959.86;1770378;78;21091;-46
2021/09/07 07:24:18;;;;;;;9.98;6.65;;;;;;;23.23;55.50;101954.87;1767250;78;21001;-48
2021/09/07 07:26:45;;;;;;;10.58;6.72;;;;;;;23.23;55.50;101953.48;1768492;79;21472;-45
2021/09/07 07:29:12;;;;;;;10.18;6.37;;;;;;;23.23;55.50;101957.64;1763083;80;20942;-48
2021/09/07 07:31:40;;;;;;;12.00;6.53;;;;;;;23.22;55.47;101958.77;1769588;80;21105;-46
2021/09/07 07:34:06;;;;;;;10.85;6.00;;;;;;;23.23;55.47;101956.26;1774429;80;21004;-48
2021/09/07 07:36:33;;;;;;;11.15;5.80;;;;;;;23.23;55.46;101963.20;1768052;79;21076;-46
2021/09/07 07:39:01;;;;;;;8.95;5.65;;;;;;;23.22;55.44;101955.44;1774199;80;21123;-46
2021/09/07 07:41:30;;;;;;;7.93;4.83;;;;;;;23.22;55.43;101958.77;1774262;80;21064;-46
2021/09/07 07:43:56;;;;;;;9.53;6.33;;;;;;;23.22;55.41;101963.77;1773329;79;21110;-46
2021/09/07 07:46:22;;;;;;;8.45;5.40;;;;;;;23.23;55.39;101963.20;1770236;80;21013;-46
2021/09/07 07:48:48;;;;;;;8.43;5.22;;;;;;;23.23;55.39;101963.20;1770689;80;21144;-46
2021/09/07 07:51:14;;;;;;;8.20;5.15;;;;;;;23.23;55.39;101960.42;1768619;80;21769;-45
2021/09/07 07:53:40;;;;;;;9.43;5.60;;;;;;;23.22;55.40;101956.82;1766450;80;21064;-46
2021/09/07 07:56:07;;;;;;;7.67;5.00;;;;;;;23.22;55.39;101954.61;1769338;80;21192;-46
2021/09/07 07:58:36;;;;;;;10.93;5.42;;;;;;;23.22;55.40;101952.66;1766522;80;21582;-48
2021/09/07 08:01:03;;;;;;;8.03;4.58;;;;;;;23.22;55.41;101954.05;1771184;80;21126;-45
2021/09/07 08:03:29;;;;;;;10.43;5.00;;;;;;;23.22;55.43;101952.66;1730316;80;21127;-45
2021/09/07 08:05:55;;;;;;;9.05;5.00;;;;;;;23.22;55.43;101950.44;1769142;80;21129;-47
2021/09/07 08:08:22;;;;;;;7.80;4.45;;;;;;;23.22;55.41;101951.27;1775669;79;39319;-46
2021/09/07 08:10:49;;;;;;;9.05;4.58;;;;;;;23.22;55.43;101955.44;1767126;80;21441;-46
2021/09/07 08:13:15;;;;;;;6.75;4.50;;;;;;;23.22;55.41;101954.61;1771520;79;21112;-45
2021/09/07 08:15:41;;;;;;;6.90;4.00;;;;;;;23.23;55.42;101950.70;1779166;80;20875;-46
2021/09/07 08:18:07;;;;;;;6.40;3.75;;;;;;;23.22;55.40;101952.66;1782858;80;21534;-45
2021/09/07 08:20:34;;;;;;;6.85;4.28;;;;;;;23.22;55.39;101950.44;1774732;80;21096;-45
2021/09/07 08:23:00;;;;;;;7.50;3.95;;;;;;;23.22;55.38;101945.71;1777636;80;21080;-47
2021/09/07 08:25:27;;;;;;;7.90;4.05;;;;;;;23.22;55.38;101947.10;1776543;80;21051;-46
2021/09/07 08:27:53;;;;;;;9.73;4.35;;;;;;;23.21;55.37;101944.06;1778279;79;21127;-45
2021/09/07 08:30:19;;;;;;;7.42;4.17;;;;;;;23.23;55.37;101944.59;1777175;80;21166;-46
2021/09/07 08:32:45;;;;;;;8.70;3.60;;;;;;;23.23;55.38;101945.16;1778581;80;21666;-46
2021/09/07 08:35:12;;;;;;;7.92;3.80;;;;;;;23.23;55.38;101942.37;1770433;79;21038;-46
2021/09/07 08:37:39;;;;;;;7.87;4.22;;;;;;;23.23;55.38;101936.83;1778542;79;21044;-47
2021/09/07 08:40:07;;;;;;;7.78;4.15;;;;;;;23.23;55.39;101931.27;1780747;79;21080;-48
2021/09/07 08:42:34;;;;;;;6.90;3.47;;;;;;;23.24;55.41;101934.31;1773275;80;21216;-46
2021/09/07 08:45:05;;;;;;;6.67;3.87;;;;;;;23.23;55.38;101929.32;1755476;80;21084;-47
2021/09/07 08:47:32;;;;;;;;;;;;;;;23.23;55.38;101925.72;1782578;80;21044;-46
2021/09/07 08:50:01;;;;;;;6.97;3.80;;;;;;;23.22;55.37;101925.45;1772054;79;20449;-47
2021/09/07 08:52:26;;;;;;;6.97;3.75;;;;;;;23.21;55.37;101921.85;1777494;80;21541;-46
2021/09/07 08:54:52;;;;;;;6.90;3.47;;;;;;;23.22;55.34;101924.06;1776606;80;21123;-48
2021/09/07 08:57:18;;;;;;;6.47;3.52;;;;;;;23.22;55.32;101931.00;1775169;80;21097;-46
2021/09/07 08:59:44;;;;;;;6.75;3.52;;;;;;;23.20;55.27;101926.34;1777360;80;21068;-46
2021/09/07 09:02:18;;;;;;;5.67;3.37;;;;;;;23.20;55.26;101921.62;1771426;79;21515;-46
2021/09/07 09:04:48;;;;;;;8.18;3.85;;;;;;;23.22;55.25;101925.45;1774621;79;21072;-46
2021/09/07 09:07:28;;;;;;;5.15;3.20;;;;;;;23.23;55.26;101929.88;1776527;80;21928;-48
2021/09/07 09:09:55;;;;;;;5.60;3.65;;;;;;;23.22;55.26;101918.52;1771273;79;21782;-47
2021/09/07 09:12:35;;;;;;;5.25;3.15;;;;;;;23.22;55.24;101919.90;1771565;79;21079;-45
2021/09/07 09:15:03;;;;;;;5.53;3.07;;;;;;;23.22;55.29;101911.57;1748420;80;21119;-45
2021/09/07 09:17:31;;;;;;;5.40;3.25;;;;;;;23.21;55.29;101926.02;1740177;81;21130;-46
2021/09/07 09:20:14;;;;;;;5.10;3.40;;;;;;;23.21;55.30;101913.52;1745008;81;21062;-45
2021/09/07 09:22:55;;;;;;;7.25;3.37;;;;;;;23.22;55.31;101911.00;1738680;81;21095;-47
2021/09/07 09:25:32;;;;;;;4.67;3.08;;;;;;;23.22;55.31;101900.47;1740916;81;21071;-45
2021/09/07 09:28:11;;;;;;;5.17;2.95;;;;;;;23.23;55.33;101906.28;1734916;81;21454;-47
2021/09/07 09:30:44;;;;;;;5.58;2.80;;;;;;;23.22;55.33;101902.67;1740758;81;21095;-46
2021/09/07 09:33:14;;;;;;;5.55;2.80;;;;;;;23.22;55.34;101905.45;1743258;81;21091;-45
2021/09/07 09:35:56;;;;;;;5.22;2.83;;;;;;;23.22;55.34;101906.84;1748584;81;21089;-45
2021/09/07 09:38:28;;;;;;;4.75;2.70;;;;;;;23.23;55.34;101906.28;1739947;81;21860;-45
2021/09/07 09:40:57;;;;;;;3.95;2.90;;;;;;;23.22;55.36;101901.29;1747031;80;21014;-47
2021/09/07 09:43:33;;;;;;;4.60;2.33;;;;;;;23.23;55.33;101906.28;1749606;80;21435;-46
2021/09/07 09:46:21;;;;;;;5.15;2.70;;;;;;;23.23;55.36;101904.33;1749298;80;21063;-47
2021/09/07 09:48:47;;;;;;;3.85;2.25;;;;;;;23.23;55.36;101894.61;1747328;80;21107;-45
2021/09/07 09:51:18;;;;;;;4.62;2.60;;;;;;;23.23;55.36;101898.78;1749458;80;21074;-45
2021/09/07 09:53:46;;;;;;;3.55;2.60;;;;;;;23.25;55.35;101897.66;1746910;80;21202;-47
2021/09/07 09:56:13;;;;;;;4.65;2.65;;;;;;;23.26;55.35;101886.78;1751064;80;21537;-46
2021/09/07 09:58:39;;;;;;;4.05;2.25;;;;;;;23.26;55.35;101885.39;1745253;80;21106;-48
2021/09/07 10:01:05;;;;;;;4.08;2.60;;;;;;;23.28;55.35;101886.74;1749876;81;21256;-47
2021/09/07 10:03:33;;;;;;;5.22;2.70;;;;;;;23.28;55.27;101879.80;1746436;80;21529;-45
2021/09/07 10:05:59;;;;;;;7.50;2.47;;;;;;;23.29;55.04;101886.19;1745704;80;21015;-45
2021/09/07 10:08:25;;;;;;;5.78;2.37;;;;;;;23.29;54.80;101887.57;1751107;80;21628;-44
2021/09/07 10:11:06;;;;;;;5.20;2.20;;;;;;;23.27;54.58;101883.70;1752452;80;21063;-44
2021/09/07 10:13:34;;;;;;;3.10;2.22;;;;;;;23.26;54.35;101881.23;1764032;80;21102;-46
2021/09/07 10:16:09;;;;;;;4.78;2.35;;;;;;;23.26;54.09;101874.28;1752779;80;21577;-44
2021/09/07 10:19:05;;;;;;;4.40;2.22;;;;;;;23.23;53.81;101872.97;1765690;81;21093;-45
2021/09/07 10:24:18;;;;;;;5.37;2.08;;;;;;;23.20;53.27;101870.25;1739619;82;21044;-44
2021/09/07 10:26:50;;;;;;;5.83;2.55;;;;;;;23.18;53.01;101864.73;1741888;81;21263;-47
2021/09/07 10:29:33;;;;;;;3.75;1.95;;;;;;;23.16;52.79;101860.08;1753064;80;21068;-46
2021/09/07 10:31:59;;;;;;;3.65;2.65;;;;;;;23.18;52.79;101861.95;1747273;80;21648;-45
2021/09/07 10:34:29;;;;;;;5.85;2.05;;;;;;;23.17;52.83;101864.47;1739004;81;20978;-46
2021/09/07 10:37:04;;;;;;;2.92;1.87;;;;;;;23.18;52.90;101857.23;1746980;81;21100;-46
2021/09/07 10:39:42;;;;;;;3.50;2.27;;;;;;;23.19;52.93;101852.50;1749310;80;21980;-46
2021/09/07 10:42:14;;;;;;;3.85;2.05;;;;;;;23.19;52.95;101849.17;1751207;81;21011;-44
2021/09/07 10:44:45;;;;;;;10.13;3.20;;;;;;;23.20;52.97;101849.99;1726089;80;21056;-46
2021/09/07 10:47:13;;;;;;;4.10;2.15;;;;;;;23.21;53.01;101851.05;1756491;80;21537;-46
2021/09/07 10:49:53;;;;;;;4.28;2.30;;;;;;;23.23;53.04;101850.75;1755298;80;21024;-46
2021/09/07 10:52:31;;;;;;;3.95;2.15;;;;;;;23.23;53.07;101847.41;1726464;82;21159;-45
2021/09/07 10:55:09;;;;;;;4.25;2.00;;;;;;;23.26;53.06;101851.51;1741509;81;21124;-45
2021/09/07 10:57:46;;;;;;;3.95;2.25;;;;;;;23.27;53.08;101847.61;1725667;82;21046;-45
2021/09/07 11:00:29;;;;;;;4.08;2.30;;;;;;;23.29;53.07;101846.75;1742849;80;21533;-47
2021/09/07 11:02:57;;;;;;;3.60;1.75;;;;;;;23.29;53.08;101839.80;1748305;80;21014;-47
2021/09/07 11:05:29;;;;;;;3.55;2.10;;;;;;;23.31;52.92;101836.70;1756928;80;20956;-47
2021/09/07 11:08:09;;;;;;;4.05;1.75;;;;;;;23.31;52.48;101843.64;1752891;80;21037;-47
2021/09/07 11:10:52;;;;;;;4.55;1.85;;;;;;;23.31;52.05;101839.47;1754758;81;21126;-46
2021/09/07 11:13:27;;;;;;;3.45;1.75;;;;;;;23.31;51.85;101836.13;1732743;80;21117;-47
2021/09/07 11:16:01;;;;;;;4.37;1.60;;;;;;;23.33;51.49;101833.05;1767485;79;21550;-46
2021/09/07 11:18:30;;;;;;;3.72;1.95;;;;;;;23.33;51.08;101831.67;1755483;80;21142;-47
2021/09/07 11:21:03;;;;;;;2.40;1.55;;;;;;;23.33;50.84;101832.49;1756758;81;21012;-46
2021/09/07 11:23:34;;;;;;;4.05;2.20;;;;;;;23.36;50.69;101834.64;1749701;81;21091;-46
2021/09/07 11:26:13;;;;;;;3.02;1.60;;;;;;;23.36;50.40;101828.26;1758166;81;21025;-46
2021/09/07 11:28:38;;;;;;;3.85;1.80;;;;;;;23.37;50.17;101826.57;1755996;81;21025;-47